Aigaion — SYMC — position and weather

sailwx.info

Track history (hours):
 
Tides and Currents Weather Stations Pressure Air Temp Water Temp Dewpoint Dewpoint Depression Visibility Wind Speed Wind Dir Waves Ship Positions

Aigaion

Last reported at 2015-Feb-24 06:28 UTC. Time now 2015-Mar-03 00:39 UTC.
Position N 35°13' E 120°07'.

Length 289 m; draft 8.7 m.

Type: Cargo ship. MMSI: 240174000.

Date/timePositionNaut miles runAvg speedWind from/ knotsBaromVisibWave heightAir tempDewpointWater temp
2015-Feb-24 06:28N 35°13' E 120°07'8 8.7
2015-Feb-24 05:30N 35°14' E 119°57'8 8.7
2015-Feb-24 04:33N 35°15' E 119°47'8 8.1
2015-Feb-24 03:34N 35°18' E 119°38'6 5.5
2015-Feb-24 02:31N 35°21' E 119°32'0 0.0
2015-Feb-24 01:29N 35°21' E 119°32'0 0.0
2015-Feb-24 00:29N 35°21' E 119°32'0 0.0
2015-Feb-23 23:29N 35°21' E 119°32'0 0.0
2015-Feb-23 22:29N 35°21' E 119°32'0 0.0
2015-Feb-23 21:29N 35°21' E 119°32'0 0.0
2015-Feb-23 20:29N 35°21' E 119°32'0 0.0
2015-Feb-23 19:29N 35°21' E 119°32'0 0.0
2015-Feb-23 18:29N 35°21' E 119°32'0 0.0
2015-Feb-23 17:29N 35°21' E 119°32'0 0.0
2015-Feb-23 16:29N 35°21' E 119°32'0 0.0
2015-Feb-23 15:23N 35°21' E 119°32'0 0.0
2015-Feb-23 14:29N 35°21' E 119°32'0 0.0
2015-Feb-23 13:29N 35°21' E 119°32'0 0.0
2015-Feb-23 12:29N 35°21' E 119°32'0 0.0
2015-Feb-23 11:29N 35°21' E 119°32'0 0.0
2015-Feb-23 10:29N 35°21' E 119°32'0 0.0
2015-Feb-23 09:29N 35°21' E 119°32'0 0.0
2015-Feb-23 08:29N 35°21' E 119°32'0 0.0
2015-Feb-23 07:23N 35°21' E 119°32'0 0.0
2015-Feb-23 06:29N 35°21' E 119°32'0 0.0
2015-Feb-23 05:23N 35°21' E 119°32'0 0.0
2015-Feb-23 04:29N 35°21' E 119°32'0 0.0
2015-Feb-23 03:17N 35°21' E 119°32'0 0.0
2015-Feb-23 02:29N 35°21' E 119°32'0 0.0
2015-Feb-23 01:29N 35°21' E 119°32'0 0.0
2015-Feb-23 00:29N 35°21' E 119°32'0 0.0
2015-Feb-22 23:29N 35°21' E 119°32'0 0.0
2015-Feb-22 22:29N 35°21' E 119°32'0 0.0
2015-Feb-22 21:23N 35°21' E 119°32'0 0.0
2015-Feb-22 20:29N 35°21' E 119°32'0 0.0
2015-Feb-22 19:29N 35°21' E 119°32'0 0.0
2015-Feb-22 18:29N 35°21' E 119°32'0 0.0
2015-Feb-22 17:29N 35°21' E 119°32'0 0.0
2015-Feb-22 16:23N 35°21' E 119°32'0 0.0
2015-Feb-22 15:29N 35°21' E 119°32'0 0.0
2015-Feb-22 14:29N 35°21' E 119°32'0 0.0
2015-Feb-22 13:11N 35°21' E 119°32'0 0.0
2015-Feb-22 12:29N 35°21' E 119°32'0 0.0
2015-Feb-22 11:29N 35°21' E 119°32'0 0.0
2015-Feb-22 10:23N 35°21' E 119°32'0 0.0
2015-Feb-22 09:29N 35°21' E 119°32'0 0.0
2015-Feb-22 08:29N 35°21' E 119°32'1 0.1
2015-Feb-21 22:12N 35°22' E 119°33'0 0.0
2015-Feb-21 21:29N 35°22' E 119°33'0 0.0
2015-Feb-21 20:23N 35°22' E 119°33'0 0.0
2015-Feb-21 19:29N 35°22' E 119°33'0 0.0
2015-Feb-21 18:23N 35°22' E 119°33'0 0.0
2015-Feb-21 17:29N 35°22' E 119°33'0 0.0
2015-Feb-21 16:29N 35°22' E 119°33'0 0.0
2015-Feb-21 15:29N 35°22' E 119°33'0 0.0
2015-Feb-21 14:29N 35°22' E 119°33'0 0.0
2015-Feb-21 13:29N 35°22' E 119°33'0 0.2
2015-Feb-21 12:33N 35°21' E 119°33'7 6.9
2015-Feb-21 11:33N 35°18' E 119°40'3 2.6
2015-Feb-21 10:33N 35°17' E 119°43'3 3.3
2015-Feb-21 09:33N 35°18' E 119°47'2 2.1
2015-Feb-21 08:34N 35°17' E 119°49'0 0.2
2015-Feb-21 07:31N 35°17' E 119°49'0 0.1
2015-Feb-21 06:31N 35°17' E 119°49'0 0.3
2015-Feb-21 05:33N 35°17' E 119°49'2 2.4
2015-Feb-21 04:33N 35°17' E 119°52'3 3.4
2015-Feb-21 03:32N 35°16' E 119°56'4 3.9
2015-Feb-21 02:33N 35°16' E 120°01'218 8.4
2015-Feb-20 00:27N 33°22' E 123°45'  
Track history (hours):
 
Tides and Currents Weather Stations Pressure Air Temp Water Temp Dewpoint Dewpoint Depression Visibility Wind Speed Wind Dir Waves Ship Positions

Aigaion

Last reported at 2015-Feb-24 06:28 UTC. Time now 2015-Mar-03 00:39 UTC.
Position N 35°13' E 120°07'.

Length 289 m; draft 8.7 m.

Type: Cargo ship. MMSI: 240174000.

Date/timePositionNaut miles runAvg speedWind from/ knotsBaromVisibWave heightAir tempDewpointWater temp
2015-Feb-24 06:28N 35°13' E 120°07'8 8.7
2015-Feb-24 05:30N 35°14' E 119°57'8 8.7
2015-Feb-24 04:33N 35°15' E 119°47'8 8.1
2015-Feb-24 03:34N 35°18' E 119°38'6 5.5
2015-Feb-24 02:31N 35°21' E 119°32'0 0.0
2015-Feb-24 01:29N 35°21' E 119°32'0 0.0
2015-Feb-24 00:29N 35°21' E 119°32'0 0.0
2015-Feb-23 23:29N 35°21' E 119°32'0 0.0
2015-Feb-23 22:29N 35°21' E 119°32'0 0.0
2015-Feb-23 21:29N 35°21' E 119°32'0 0.0
2015-Feb-23 20:29N 35°21' E 119°32'0 0.0
2015-Feb-23 19:29N 35°21' E 119°32'0 0.0
2015-Feb-23 18:29N 35°21' E 119°32'0 0.0
2015-Feb-23 17:29N 35°21' E 119°32'0 0.0
2015-Feb-23 16:29N 35°21' E 119°32'0 0.0
2015-Feb-23 15:23N 35°21' E 119°32'0 0.0
2015-Feb-23 14:29N 35°21' E 119°32'0 0.0
2015-Feb-23 13:29N 35°21' E 119°32'0 0.0
2015-Feb-23 12:29N 35°21' E 119°32'0 0.0
2015-Feb-23 11:29N 35°21' E 119°32'0 0.0
2015-Feb-23 10:29N 35°21' E 119°32'0 0.0
2015-Feb-23 09:29N 35°21' E 119°32'0 0.0
2015-Feb-23 08:29N 35°21' E 119°32'0 0.0
2015-Feb-23 07:23N 35°21' E 119°32'0 0.0
2015-Feb-23 06:29N 35°21' E 119°32'0 0.0
2015-Feb-23 05:23N 35°21' E 119°32'0 0.0
2015-Feb-23 04:29N 35°21' E 119°32'0 0.0
2015-Feb-23 03:17N 35°21' E 119°32'0 0.0
2015-Feb-23 02:29N 35°21' E 119°32'0 0.0
2015-Feb-23 01:29N 35°21' E 119°32'0 0.0
2015-Feb-23 00:29N 35°21' E 119°32'0 0.0
2015-Feb-22 23:29N 35°21' E 119°32'0 0.0
2015-Feb-22 22:29N 35°21' E 119°32'0 0.0
2015-Feb-22 21:23N 35°21' E 119°32'0 0.0
2015-Feb-22 20:29N 35°21' E 119°32'0 0.0
2015-Feb-22 19:29N 35°21' E 119°32'0 0.0
2015-Feb-22 18:29N 35°21' E 119°32'0 0.0
2015-Feb-22 17:29N 35°21' E 119°32'0 0.0
2015-Feb-22 16:23N 35°21' E 119°32'0 0.0
2015-Feb-22 15:29N 35°21' E 119°32'0 0.0
2015-Feb-22 14:29N 35°21' E 119°32'0 0.0
2015-Feb-22 13:11N 35°21' E 119°32'0 0.0
2015-Feb-22 12:29N 35°21' E 119°32'0 0.0
2015-Feb-22 11:29N 35°21' E 119°32'0 0.0
2015-Feb-22 10:23N 35°21' E 119°32'0 0.0
2015-Feb-22 09:29N 35°21' E 119°32'0 0.0
2015-Feb-22 08:29N 35°21' E 119°32'1 0.1
2015-Feb-21 22:12N 35°22' E 119°33'0 0.0
2015-Feb-21 21:29N 35°22' E 119°33'0 0.0
2015-Feb-21 20:23N 35°22' E 119°33'0 0.0
2015-Feb-21 19:29N 35°22' E 119°33'0 0.0
2015-Feb-21 18:23N 35°22' E 119°33'0 0.0
2015-Feb-21 17:29N 35°22' E 119°33'0 0.0
2015-Feb-21 16:29N 35°22' E 119°33'0 0.0
2015-Feb-21 15:29N 35°22' E 119°33'0 0.0
2015-Feb-21 14:29N 35°22' E 119°33'0 0.0
2015-Feb-21 13:29N 35°22' E 119°33'0 0.2
2015-Feb-21 12:33N 35°21' E 119°33'7 6.9
2015-Feb-21 11:33N 35°18' E 119°40'3 2.6
2015-Feb-21 10:33N 35°17' E 119°43'3 3.3
2015-Feb-21 09:33N 35°18' E 119°47'2 2.1
2015-Feb-21 08:34N 35°17' E 119°49'0 0.2
2015-Feb-21 07:31N 35°17' E 119°49'0 0.1
2015-Feb-21 06:31N 35°17' E 119°49'0 0.3
2015-Feb-21 05:33N 35°17' E 119°49'2 2.4
2015-Feb-21 04:33N 35°17' E 119°52'3 3.4
2015-Feb-21 03:32N 35°16' E 119°56'4 3.9
2015-Feb-21 02:33N 35°16' E 120°01'218 8.4
2015-Feb-20 00:27N 33°22' E 123°45'  

Dump ship's entire track history